Pede Vento — CRLZ9 — position and weather

sailwx.info

Track history (hours):
 
Tides and Currents Weather Stations Pressure Air Temp Water Temp Dewpoint Dewpoint Depression Visibility Wind Speed Wind Dir Waves Ship Positions

Pede Vento

Last reported at 2015-May-02 14:33 UTC. Time now 2015-May-07 03:34 UTC.
Position N 38°42' W 009°12'.

Length 12 m.

Type: Sailing vessel. MMSI: 263819560.

Date/timePositionNaut miles runAvg speedWind from/ knotsBaromVisibWave heightAir tempDewpointWater temp
2015-May-02 14:33N 38°42' W 009°12'0 0.5
2015-May-02 13:31N 38°42' W 009°12'1 1.2
2015-May-02 12:33N 38°41' W 009°14'0 0.4
2015-May-02 11:32N 38°41' W 009°13'2 1.7
2015-May-02 10:29N 38°42' W 009°11'1 0.1
2015-May-01 13:23N 38°41' W 009°12'0 0.3
2015-May-01 12:32N 38°41' W 009°12'1 0.6
2015-May-01 11:34N 38°41' W 009°13'2 1.3
2015-May-01 10:24N 38°42' W 009°11'1 0.9
2015-May-01 09:29N 38°42' W 009°10'  
2015-Apr-26 13:33N 38°42' W 009°12'5 4.5
2015-Apr-26 12:32N 38°41' W 009°18'6 6.6
2015-Apr-26 11:33N 38°35' W 009°17'8 7.7
2015-Apr-26 10:32N 38°27' W 009°15'1 0.0
2015-Apr-24 21:15N 38°26' W 009°15'3 4.8
2015-Apr-24 20:32N 38°30' W 009°13'6 5.6
2015-Apr-24 19:31N 38°35' W 009°16'6 5.3
2015-Apr-24 18:27N 38°40' W 009°19'2 2.3
2015-Apr-24 17:31N 38°42' W 009°17'  
Track history (hours):
 
Tides and Currents Weather Stations Pressure Air Temp Water Temp Dewpoint Dewpoint Depression Visibility Wind Speed Wind Dir Waves Ship Positions

Pede Vento

Last reported at 2015-May-02 14:33 UTC. Time now 2015-May-07 03:34 UTC.
Position N 38°42' W 009°12'.

Length 12 m.

Type: Sailing vessel. MMSI: 263819560.

Date/timePositionNaut miles runAvg speedWind from/ knotsBaromVisibWave heightAir tempDewpointWater temp
2015-May-02 14:33N 38°42' W 009°12'0 0.5
2015-May-02 13:31N 38°42' W 009°12'1 1.2
2015-May-02 12:33N 38°41' W 009°14'0 0.4
2015-May-02 11:32N 38°41' W 009°13'2 1.7
2015-May-02 10:29N 38°42' W 009°11'1 0.1
2015-May-01 13:23N 38°41' W 009°12'0 0.3
2015-May-01 12:32N 38°41' W 009°12'1 0.6
2015-May-01 11:34N 38°41' W 009°13'2 1.3
2015-May-01 10:24N 38°42' W 009°11'1 0.9
2015-May-01 09:29N 38°42' W 009°10'  
2015-Apr-26 13:33N 38°42' W 009°12'5 4.5
2015-Apr-26 12:32N 38°41' W 009°18'6 6.6
2015-Apr-26 11:33N 38°35' W 009°17'8 7.7
2015-Apr-26 10:32N 38°27' W 009°15'1 0.0
2015-Apr-24 21:15N 38°26' W 009°15'3 4.8
2015-Apr-24 20:32N 38°30' W 009°13'6 5.6
2015-Apr-24 19:31N 38°35' W 009°16'6 5.3
2015-Apr-24 18:27N 38°40' W 009°19'2 2.3
2015-Apr-24 17:31N 38°42' W 009°17'  

Dump ship's entire track history